sensor_id;sensor_type;location;lat;lon;timestamp;temperature;humidity
6538;DHT22;3302;52.508;13.454;2024-03-29T00:00:45;9.10;92.20
6538;DHT22;3302;52.508;13.454;2024-03-29T00:03:31;9.10;92.00
6538;DHT22;3302;52.508;13.454;2024-03-29T00:06:17;9.10;92.10
6538;DHT22;3302;52.508;13.454;2024-03-29T00:09:03;9.10;92.20
6538;DHT22;3302;52.508;13.454;2024-03-29T00:11:49;9.10;92.20
6538;DHT22;3302;52.508;13.454;2024-03-29T00:14:35;9.10;92.20
6538;DHT22;3302;52.508;13.454;2024-03-29T00:17:21;9.10;92.30
6538;DHT22;3302;52.508;13.454;2024-03-29T00:20:07;9.10;92.30
6538;DHT22;3302;52.508;13.454;2024-03-29T00:22:53;9.20;92.30
6538;DHT22;3302;52.508;13.454;2024-03-29T00:25:39;9.20;92.20
6538;DHT22;3302;52.508;13.454;2024-03-29T00:28:26;9.30;92.00
6538;DHT22;3302;52.508;13.454;2024-03-29T00:31:12;9.30;91.80
6538;DHT22;3302;52.508;13.454;2024-03-29T00:33:58;9.30;92.00
6538;DHT22;3302;52.508;13.454;2024-03-29T00:36:44;9.40;91.30
6538;DHT22;3302;52.508;13.454;2024-03-29T00:39:30;9.40;91.20
6538;DHT22;3302;52.508;13.454;2024-03-29T00:42:16;9.40;90.90
6538;DHT22;3302;52.508;13.454;2024-03-29T00:45:02;9.40;91.20
6538;DHT22;3302;52.508;13.454;2024-03-29T00:47:48;9.30;92.00
6538;DHT22;3302;52.508;13.454;2024-03-29T00:50:34;9.20;93.00
6538;DHT22;3302;52.508;13.454;2024-03-29T00:53:20;9.10;93.90
6538;DHT22;3302;52.508;13.454;2024-03-29T00:56:06;8.90;94.60
6538;DHT22;3302;52.508;13.454;2024-03-29T00:58:52;8.80;95.50
6538;DHT22;3302;52.508;13.454;2024-03-29T01:01:38;8.60;97.00
6538;DHT22;3302;52.508;13.454;2024-03-29T01:04:24;8.50;98.20
6538;DHT22;3302;52.508;13.454;2024-03-29T01:07:10;8.50;98.70
6538;DHT22;3302;52.508;13.454;2024-03-29T01:09:56;8.40;99.40
6538;DHT22;3302;52.508;13.454;2024-03-29T01:12:42;8.40;99.80
6538;DHT22;3302;52.508;13.454;2024-03-29T01:15:28;8.30;99.90
6538;DHT22;3302;52.508;13.454;2024-03-29T01:18:14;8.20;99.90
6538;DHT22;3302;52.508;13.454;2024-03-29T01:21:00;8.20;99.90
6538;DHT22;3302;52.508;13.454;2024-03-29T01:23:46;8.20;99.90
6538;DHT22;3302;52.508;13.454;2024-03-29T01:26:32;8.00;99.90
6538;DHT22;3302;52.508;13.454;2024-03-29T01:29:18;7.90;99.90
6538;DHT22;3302;52.508;13.454;2024-03-29T01:32:04;7.90;99.90
6538;DHT22;3302;52.508;13.454;2024-03-29T01:34:50;7.80;99.90
6538;DHT22;3302;52.508;13.454;2024-03-29T01:37:36;7.70;99.90
6538;DHT22;3302;52.508;13.454;2024-03-29T01:40:22;7.70;99.90
6538;DHT22;3302;52.508;13.454;2024-03-29T01:43:08;7.70;99.90
6538;DHT22;3302;52.508;13.454;2024-03-29T01:45:57;7.70;99.90
6538;DHT22;3302;52.508;13.454;2024-03-29T01:48:43;7.60;99.90
6538;DHT22;3302;52.508;13.454;2024-03-29T01:51:29;7.50;99.90
6538;DHT22;3302;52.508;13.454;2024-03-29T01:54:15;7.50;99.90
6538;DHT22;3302;52.508;13.454;2024-03-29T01:57:01;7.50;99.90
6538;DHT22;3302;52.508;13.454;2024-03-29T01:59:47;7.40;99.90
6538;DHT22;3302;52.508;13.454;2024-03-29T02:02:34;7.50;99.90
6538;DHT22;3302;52.508;13.454;2024-03-29T02:05:20;7.40;99.90
6538;DHT22;3302;52.508;13.454;2024-03-29T02:08:07;7.40;99.90
6538;DHT22;3302;52.508;13.454;2024-03-29T02:10:53;7.40;99.90
6538;DHT22;3302;52.508;13.454;2024-03-29T02:13:39;7.40;99.90
6538;DHT22;3302;52.508;13.454;2024-03-29T02:16:26;7.40;99.90
6538;DHT22;3302;52.508;13.454;2024-03-29T02:19:12;7.30;99.90
6538;DHT22;3302;52.508;13.454;2024-03-29T02:21:59;7.30;99.90
6538;DHT22;3302;52.508;13.454;2024-03-29T02:24:46;7.30;99.90
6538;DHT22;3302;52.508;13.454;2024-03-29T02:27:32;7.40;99.90
6538;DHT22;3302;52.508;13.454;2024-03-29T02:30:18;7.40;99.90
6538;DHT22;3302;52.508;13.454;2024-03-29T02:33:04;7.30;99.90
6538;DHT22;3302;52.508;13.454;2024-03-29T02:35:50;7.40;99.90
6538;DHT22;3302;52.508;13.454;2024-03-29T02:38:36;7.40;99.90
6538;DHT22;3302;52.508;13.454;2024-03-29T02:41:22;7.40;99.90
6538;DHT22;3302;52.508;13.454;2024-03-29T02:44:08;7.50;99.90
6538;DHT22;3302;52.508;13.454;2024-03-29T02:46:56;7.40;99.90
6538;DHT22;3302;52.508;13.454;2024-03-29T02:49:42;7.40;99.90
6538;DHT22;3302;52.508;13.454;2024-03-29T02:52:28;7.30;99.90
6538;DHT22;3302;52.508;13.454;2024-03-29T02:55:14;7.30;99.90
6538;DHT22;3302;52.508;13.454;2024-03-29T02:58:00;7.30;99.90
6538;DHT22;3302;52.508;13.454;2024-03-29T03:00:46;7.20;99.90
6538;DHT22;3302;52.508;13.454;2024-03-29T03:03:32;7.20;99.90
6538;DHT22;3302;52.508;13.454;2024-03-29T03:06:18;7.20;99.90
6538;DHT22;3302;52.508;13.454;2024-03-29T03:09:04;7.10;99.90
6538;DHT22;3302;52.508;13.454;2024-03-29T03:12:08;7.10;99.90
6538;DHT22;3302;52.508;13.454;2024-03-29T03:14:54;7.10;99.90
6538;DHT22;3302;52.508;13.454;2024-03-29T03:17:40;7.00;99.90
6538;DHT22;3302;52.508;13.454;2024-03-29T03:20:26;7.10;99.90
6538;DHT22;3302;52.508;13.454;2024-03-29T03:23:16;7.00;99.90
6538;DHT22;3302;52.508;13.454;2024-03-29T03:26:03;7.00;99.90
6538;DHT22;3302;52.508;13.454;2024-03-29T03:28:52;6.90;99.90
6538;DHT22;3302;52.508;13.454;2024-03-29T03:31:38;6.90;99.90
6538;DHT22;3302;52.508;13.454;2024-03-29T03:34:25;6.90;99.90
6538;DHT22;3302;52.508;13.454;2024-03-29T03:37:11;6.90;99.90
6538;DHT22;3302;52.508;13.454;2024-03-29T03:39:57;6.90;99.90
6538;DHT22;3302;52.508;13.454;2024-03-29T03:42:43;6.80;99.90
6538;DHT22;3302;52.508;13.454;2024-03-29T03:45:37;6.80;99.90
6538;DHT22;3302;52.508;13.454;2024-03-29T03:48:23;6.70;99.90
6538;DHT22;3302;52.508;13.454;2024-03-29T03:51:09;6.80;99.90
6538;DHT22;3302;52.508;13.454;2024-03-29T03:53:55;6.70;99.90
6538;DHT22;3302;52.508;13.454;2024-03-29T03:56:41;6.70;99.90
6538;DHT22;3302;52.508;13.454;2024-03-29T03:59:27;6.60;99.90
6538;DHT22;3302;52.508;13.454;2024-03-29T04:02:13;6.60;99.90
6538;DHT22;3302;52.508;13.454;2024-03-29T04:04:59;6.60;99.90
6538;DHT22;3302;52.508;13.454;2024-03-29T04:07:45;6.60;99.90
6538;DHT22;3302;52.508;13.454;2024-03-29T04:10:31;6.60;99.90
6538;DHT22;3302;52.508;13.454;2024-03-29T04:13:18;6.60;99.90
6538;DHT22;3302;52.508;13.454;2024-03-29T04:16:06;6.60;99.90
6538;DHT22;3302;52.508;13.454;2024-03-29T04:18:52;6.60;99.90
6538;DHT22;3302;52.508;13.454;2024-03-29T04:21:38;6.60;99.90
6538;DHT22;3302;52.508;13.454;2024-03-29T04:24:25;6.60;99.90
6538;DHT22;3302;52.508;13.454;2024-03-29T04:27:11;6.50;99.90
6538;DHT22;3302;52.508;13.454;2024-03-29T04:29:57;6.60;99.90
6538;DHT22;3302;52.508;13.454;2024-03-29T04:32:43;6.50;99.90
6538;DHT22;3302;52.508;13.454;2024-03-29T04:35:29;6.50;99.90
6538;DHT22;3302;52.508;13.454;2024-03-29T04:38:14;6.50;99.90
6538;DHT22;3302;52.508;13.454;2024-03-29T04:41:00;6.50;99.90
6538;DHT22;3302;52.508;13.454;2024-03-29T04:43:46;6.50;99.90
6538;DHT22;3302;52.508;13.454;2024-03-29T04:46:32;6.60;99.90
6538;DHT22;3302;52.508;13.454;2024-03-29T04:49:19;6.50;99.90
6538;DHT22;3302;52.508;13.454;2024-03-29T04:52:08;6.50;99.90
6538;DHT22;3302;52.508;13.454;2024-03-29T04:54:55;6.50;99.90
6538;DHT22;3302;52.508;13.454;2024-03-29T04:57:41;6.50;99.90
6538;DHT22;3302;52.508;13.454;2024-03-29T05:00:27;6.40;99.90
6538;DHT22;3302;52.508;13.454;2024-03-29T05:03:14;6.40;99.90
6538;DHT22;3302;52.508;13.454;2024-03-29T05:06:00;6.30;99.90
6538;DHT22;3302;52.508;13.454;2024-03-29T05:08:46;6.30;99.90
6538;DHT22;3302;52.508;13.454;2024-03-29T05:11:32;6.20;99.90
6538;DHT22;3302;52.508;13.454;2024-03-29T05:14:19;6.20;99.90
6538;DHT22;3302;52.508;13.454;2024-03-29T05:17:05;6.10;99.90
6538;DHT22;3302;52.508;13.454;2024-03-29T05:19:51;6.10;99.90
6538;DHT22;3302;52.508;13.454;2024-03-29T05:22:37;6.10;99.90
6538;DHT22;3302;52.508;13.454;2024-03-29T05:25:23;6.20;99.90
6538;DHT22;3302;52.508;13.454;2024-03-29T05:28:09;6.20;99.90
6538;DHT22;3302;52.508;13.454;2024-03-29T05:30:56;6.30;99.90
6538;DHT22;3302;52.508;13.454;2024-03-29T05:33:43;6.20;99.90
6538;DHT22;3302;52.508;13.454;2024-03-29T05:36:31;6.30;99.90
6538;DHT22;3302;52.508;13.454;2024-03-29T05:39:17;6.30;99.90
6538;DHT22;3302;52.508;13.454;2024-03-29T05:42:04;6.30;99.90
6538;DHT22;3302;52.508;13.454;2024-03-29T05:44:51;6.40;99.90
6538;DHT22;3302;52.508;13.454;2024-03-29T05:47:36;6.50;99.90
6538;DHT22;3302;52.508;13.454;2024-03-29T05:50:23;6.60;99.90
6538;DHT22;3302;52.508;13.454;2024-03-29T05:53:09;6.50;99.90
6538;DHT22;3302;52.508;13.454;2024-03-29T05:55:55;6.60;99.90
6538;DHT22;3302;52.508;13.454;2024-03-29T05:58:41;6.50;99.90
6538;DHT22;3302;52.508;13.454;2024-03-29T06:01:27;6.50;99.90
6538;DHT22;3302;52.508;13.454;2024-03-29T06:04:13;6.50;99.90
6538;DHT22;3302;52.508;13.454;2024-03-29T06:07:04;6.50;99.90
6538;DHT22;3302;52.508;13.454;2024-03-29T06:09:50;6.60;99.90
6538;DHT22;3302;52.508;13.454;2024-03-29T06:12:37;6.60;99.90
6538;DHT22;3302;52.508;13.454;2024-03-29T06:15:24;6.60;99.90
6538;DHT22;3302;52.508;13.454;2024-03-29T06:18:29;6.60;99.90
6538;DHT22;3302;52.508;13.454;2024-03-29T06:21:14;6.60;99.90
6538;DHT22;3302;52.508;13.454;2024-03-29T06:24:00;6.70;99.90
6538;DHT22;3302;52.508;13.454;2024-03-29T06:26:47;6.70;99.90
6538;DHT22;3302;52.508;13.454;2024-03-29T06:29:33;6.70;99.90
6538;DHT22;3302;52.508;13.454;2024-03-29T06:32:18;6.80;99.90
6538;DHT22;3302;52.508;13.454;2024-03-29T06:35:05;6.80;99.90
6538;DHT22;3302;52.508;13.454;2024-03-29T06:37:51;6.90;99.90
6538;DHT22;3302;52.508;13.454;2024-03-29T06:40:37;6.90;99.90
6538;DHT22;3302;52.508;13.454;2024-03-29T06:43:23;7.00;99.90
6538;DHT22;3302;52.508;13.454;2024-03-29T06:46:09;7.10;99.90
6538;DHT22;3302;52.508;13.454;2024-03-29T06:48:56;7.10;99.70
6538;DHT22;3302;52.508;13.454;2024-03-29T06:51:42;7.10;99.50
6538;DHT22;3302;52.508;13.454;2024-03-29T06:54:29;7.30;99.20
6538;DHT22;3302;52.508;13.454;2024-03-29T06:57:15;7.40;98.80
6538;DHT22;3302;52.508;13.454;2024-03-29T07:00:03;7.50;98.60
6538;DHT22;3302;52.508;13.454;2024-03-29T07:02:49;7.60;98.20
6538;DHT22;3302;52.508;13.454;2024-03-29T07:05:35;7.70;97.70
6538;DHT22;3302;52.508;13.454;2024-03-29T07:08:21;7.80;97.60
6538;DHT22;3302;52.508;13.454;2024-03-29T07:11:07;7.80;97.30
6538;DHT22;3302;52.508;13.454;2024-03-29T07:13:53;7.90;97.10
6538;DHT22;3302;52.508;13.454;2024-03-29T07:16:39;8.00;96.80
6538;DHT22;3302;52.508;13.454;2024-03-29T07:19:25;8.00;96.30
6538;DHT22;3302;52.508;13.454;2024-03-29T07:22:11;8.10;95.90
6538;DHT22;3302;52.508;13.454;2024-03-29T07:24:57;8.20;96.00
6538;DHT22;3302;52.508;13.454;2024-03-29T07:27:43;8.20;95.70
6538;DHT22;3302;52.508;13.454;2024-03-29T07:30:29;8.30;95.70
6538;DHT22;3302;52.508;13.454;2024-03-29T07:33:16;8.30;95.60
6538;DHT22;3302;52.508;13.454;2024-03-29T07:36:02;8.30;95.50
6538;DHT22;3302;52.508;13.454;2024-03-29T07:38:48;8.40;95.40
6538;DHT22;3302;52.508;13.454;2024-03-29T07:41:34;8.50;94.70
6538;DHT22;3302;52.508;13.454;2024-03-29T07:44:20;8.60;94.50
6538;DHT22;3302;52.508;13.454;2024-03-29T07:47:06;8.80;93.90
6538;DHT22;3302;52.508;13.454;2024-03-29T07:49:52;8.80;93.70
6538;DHT22;3302;52.508;13.454;2024-03-29T07:52:38;8.90;93.60
6538;DHT22;3302;52.508;13.454;2024-03-29T07:55:24;9.00;93.60
6538;DHT22;3302;52.508;13.454;2024-03-29T07:58:10;9.00;93.40
6538;DHT22;3302;52.508;13.454;2024-03-29T08:00:56;9.10;93.20
6538;DHT22;3302;52.508;13.454;2024-03-29T08:03:42;9.20;92.90
6538;DHT22;3302;52.508;13.454;2024-03-29T08:06:28;9.30;92.70
6538;DHT22;3302;52.508;13.454;2024-03-29T08:09:14;9.30;92.50
6538;DHT22;3302;52.508;13.454;2024-03-29T08:12:00;9.40;92.20
6538;DHT22;3302;52.508;13.454;2024-03-29T08:14:46;9.40;92.20
6538;DHT22;3302;52.508;13.454;2024-03-29T08:17:32;9.50;92.10
6538;DHT22;3302;52.508;13.454;2024-03-29T08:20:18;9.50;92.10
6538;DHT22;3302;52.508;13.454;2024-03-29T08:23:04;9.50;92.30
6538;DHT22;3302;52.508;13.454;2024-03-29T08:25:50;9.60;92.70
6538;DHT22;3302;52.508;13.454;2024-03-29T08:28:38;9.60;93.20
6538;DHT22;3302;52.508;13.454;2024-03-29T08:31:24;9.60;93.80
6538;DHT22;3302;52.508;13.454;2024-03-29T08:34:09;9.60;93.00
6538;DHT22;3302;52.508;13.454;2024-03-29T08:36:59;9.70;93.80
6538;DHT22;3302;52.508;13.454;2024-03-29T08:39:45;9.80;93.90
6538;DHT22;3302;52.508;13.454;2024-03-29T08:42:30;9.90;94.20
6538;DHT22;3302;52.508;13.454;2024-03-29T08:45:19;9.90;94.60
6538;DHT22;3302;52.508;13.454;2024-03-29T08:48:08;10.00;93.90
6538;DHT22;3302;52.508;13.454;2024-03-29T08:50:54;10.10;93.60
6538;DHT22;3302;52.508;13.454;2024-03-29T08:53:41;10.10;93.20
6538;DHT22;3302;52.508;13.454;2024-03-29T08:56:26;10.10;93.20
6538;DHT22;3302;52.508;13.454;2024-03-29T08:59:12;10.10;93.10
6538;DHT22;3302;52.508;13.454;2024-03-29T09:02:06;10.20;93.50
6538;DHT22;3302;52.508;13.454;2024-03-29T09:04:52;10.20;92.90
6538;DHT22;3302;52.508;13.454;2024-03-29T09:07:38;10.20;92.90
6538;DHT22;3302;52.508;13.454;2024-03-29T09:10:26;10.40;93.10
6538;DHT22;3302;52.508;13.454;2024-03-29T09:13:12;10.40;92.40
6538;DHT22;3302;52.508;13.454;2024-03-29T09:15:58;10.50;92.70
6538;DHT22;3302;52.508;13.454;2024-03-29T09:18:46;10.60;92.30
6538;DHT22;3302;52.508;13.454;2024-03-29T09:21:32;10.60;91.70
6538;DHT22;3302;52.508;13.454;2024-03-29T09:24:18;10.70;91.40
6538;DHT22;3302;52.508;13.454;2024-03-29T09:27:05;10.80;91.30
6538;DHT22;3302;52.508;13.454;2024-03-29T09:29:51;10.80;90.90
6538;DHT22;3302;52.508;13.454;2024-03-29T09:32:37;10.90;91.00
6538;DHT22;3302;52.508;13.454;2024-03-29T09:35:23;10.90;90.60
6538;DHT22;3302;52.508;13.454;2024-03-29T09:38:09;10.90;90.30
6538;DHT22;3302;52.508;13.454;2024-03-29T09:41:16;11.00;90.00
6538;DHT22;3302;52.508;13.454;2024-03-29T09:44:03;11.10;89.80
6538;DHT22;3302;52.508;13.454;2024-03-29T09:46:50;11.10;89.40
6538;DHT22;3302;52.508;13.454;2024-03-29T09:49:38;11.30;89.50
6538;DHT22;3302;52.508;13.454;2024-03-29T09:52:27;11.40;87.80
6538;DHT22;3302;52.508;13.454;2024-03-29T09:55:13;11.40;86.60
6538;DHT22;3302;52.508;13.454;2024-03-29T09:58:00;11.50;85.80
6538;DHT22;3302;52.508;13.454;2024-03-29T10:00:46;11.50;85.30
6538;DHT22;3302;52.508;13.454;2024-03-29T10:03:42;11.60;85.40
6538;DHT22;3302;52.508;13.454;2024-03-29T10:06:30;11.70;84.70
6538;DHT22;3302;52.508;13.454;2024-03-29T10:09:18;11.60;84.30
6538;DHT22;3302;52.508;13.454;2024-03-29T10:12:04;11.60;84.10
6538;DHT22;3302;52.508;13.454;2024-03-29T10:14:50;11.70;84.00
6538;DHT22;3302;52.508;13.454;2024-03-29T10:17:46;11.70;83.20
6538;DHT22;3302;52.508;13.454;2024-03-29T10:20:34;11.70;84.00
6538;DHT22;3302;52.508;13.454;2024-03-29T10:23:20;11.80;85.80
6538;DHT22;3302;52.508;13.454;2024-03-29T10:26:10;11.70;86.00
6538;DHT22;3302;52.508;13.454;2024-03-29T10:28:56;11.60;87.30
6538;DHT22;3302;52.508;13.454;2024-03-29T10:31:42;11.50;88.80
6538;DHT22;3302;52.508;13.454;2024-03-29T10:34:29;11.40;90.10
6538;DHT22;3302;52.508;13.454;2024-03-29T10:37:19;11.40;90.40
6538;DHT22;3302;52.508;13.454;2024-03-29T10:40:12;11.30;90.80
6538;DHT22;3302;52.508;13.454;2024-03-29T10:43:01;11.40;91.40
6538;DHT22;3302;52.508;13.454;2024-03-29T10:45:50;11.20;91.10
6538;DHT22;3302;52.508;13.454;2024-03-29T10:48:39;11.20;91.40
6538;DHT22;3302;52.508;13.454;2024-03-29T10:51:27;11.30;91.70
6538;DHT22;3302;52.508;13.454;2024-03-29T10:54:14;11.20;91.90
6538;DHT22;3302;52.508;13.454;2024-03-29T10:57:05;11.20;92.20
6538;DHT22;3302;52.508;13.454;2024-03-29T11:00:11;11.20;92.60
6538;DHT22;3302;52.508;13.454;2024-03-29T11:03:13;11.10;93.30
6538;DHT22;3302;52.508;13.454;2024-03-29T11:06:06;11.20;93.70
6538;DHT22;3302;52.508;13.454;2024-03-29T11:08:54;11.20;94.20
6538;DHT22;3302;52.508;13.454;2024-03-29T11:11:48;11.20;94.20
6538;DHT22;3302;52.508;13.454;2024-03-29T11:14:42;11.30;94.10
6538;DHT22;3302;52.508;13.454;2024-03-29T11:17:29;11.50;93.90
6538;DHT22;3302;52.508;13.454;2024-03-29T11:20:16;11.50;93.50
6538;DHT22;3302;52.508;13.454;2024-03-29T11:23:09;11.70;93.70
6538;DHT22;3302;52.508;13.454;2024-03-29T11:25:57;11.60;92.90
6538;DHT22;3302;52.508;13.454;2024-03-29T11:28:50;11.70;92.70
6538;DHT22;3302;52.508;13.454;2024-03-29T11:31:38;11.90;92.70
6538;DHT22;3302;52.508;13.454;2024-03-29T11:34:24;12.00;92.70
6538;DHT22;3302;52.508;13.454;2024-03-29T11:37:11;12.10;92.20
6538;DHT22;3302;52.508;13.454;2024-03-29T11:40:01;12.10;91.70
6538;DHT22;3302;52.508;13.454;2024-03-29T11:42:52;12.20;91.90
6538;DHT22;3302;52.508;13.454;2024-03-29T11:45:38;12.20;91.60
6538;DHT22;3302;52.508;13.454;2024-03-29T11:48:27;12.20;91.60
6538;DHT22;3302;52.508;13.454;2024-03-29T11:51:14;12.20;91.70
6538;DHT22;3302;52.508;13.454;2024-03-29T11:54:01;12.20;91.70
6538;DHT22;3302;52.508;13.454;2024-03-29T11:56:48;12.20;91.70
6538;DHT22;3302;52.508;13.454;2024-03-29T11:59:34;12.20;91.50
6538;DHT22;3302;52.508;13.454;2024-03-29T12:02:20;12.10;91.60
6538;DHT22;3302;52.508;13.454;2024-03-29T12:05:09;12.20;92.10
6538;DHT22;3302;52.508;13.454;2024-03-29T12:07:57;12.20;92.80
6538;DHT22;3302;52.508;13.454;2024-03-29T12:10:44;12.10;93.40
6538;DHT22;3302;52.508;13.454;2024-03-29T12:13:31;12.10;93.30
6538;DHT22;3302;52.508;13.454;2024-03-29T12:16:17;12.10;94.50
6538;DHT22;3302;52.508;13.454;2024-03-29T12:19:03;12.10;93.60
6538;DHT22;3302;52.508;13.454;2024-03-29T12:21:50;12.10;93.70
6538;DHT22;3302;52.508;13.454;2024-03-29T12:24:37;12.20;94.10
6538;DHT22;3302;52.508;13.454;2024-03-29T12:27:23;12.30;93.80
6538;DHT22;3302;52.508;13.454;2024-03-29T12:30:10;12.30;93.40
6538;DHT22;3302;52.508;13.454;2024-03-29T12:33:16;12.50;93.10
6538;DHT22;3302;52.508;13.454;2024-03-29T12:36:03;12.60;92.20
6538;DHT22;3302;52.508;13.454;2024-03-29T12:38:51;12.80;91.30
6538;DHT22;3302;52.508;13.454;2024-03-29T12:41:41;13.00;89.40
6538;DHT22;3302;52.508;13.454;2024-03-29T12:44:28;13.20;88.30
6538;DHT22;3302;52.508;13.454;2024-03-29T12:47:16;13.20;87.50
6538;DHT22;3302;52.508;13.454;2024-03-29T12:50:03;13.40;86.50
6538;DHT22;3302;52.508;13.454;2024-03-29T12:52:49;13.60;84.40
6538;DHT22;3302;52.508;13.454;2024-03-29T12:55:35;13.70;84.60
6538;DHT22;3302;52.508;13.454;2024-03-29T12:58:21;13.90;83.50
6538;DHT22;3302;52.508;13.454;2024-03-29T13:01:07;14.00;82.90
6538;DHT22;3302;52.508;13.454;2024-03-29T13:03:55;14.00;81.30
6538;DHT22;3302;52.508;13.454;2024-03-29T13:06:41;14.00;79.90
6538;DHT22;3302;52.508;13.454;2024-03-29T13:09:27;14.00;78.40
6538;DHT22;3302;52.508;13.454;2024-03-29T13:12:13;14.20;78.20
6538;DHT22;3302;52.508;13.454;2024-03-29T13:15:02;14.20;77.60
6538;DHT22;3302;52.508;13.454;2024-03-29T13:17:52;14.20;74.50
6538;DHT22;3302;52.508;13.454;2024-03-29T13:20:39;14.20;74.80
6538;DHT22;3302;52.508;13.454;2024-03-29T13:23:28;14.20;75.00
6538;DHT22;3302;52.508;13.454;2024-03-29T13:26:15;14.20;73.60
6538;DHT22;3302;52.508;13.454;2024-03-29T13:29:01;14.20;74.00
6538;DHT22;3302;52.508;13.454;2024-03-29T13:31:47;14.30;73.50
6538;DHT22;3302;52.508;13.454;2024-03-29T13:34:32;14.30;72.60
6538;DHT22;3302;52.508;13.454;2024-03-29T13:37:18;14.30;72.80
6538;DHT22;3302;52.508;13.454;2024-03-29T13:40:06;14.40;71.20
6538;DHT22;3302;52.508;13.454;2024-03-29T13:42:53;14.40;69.50
6538;DHT22;3302;52.508;13.454;2024-03-29T13:45:38;14.50;69.60
6538;DHT22;3302;52.508;13.454;2024-03-29T13:48:25;14.60;68.90
6538;DHT22;3302;52.508;13.454;2024-03-29T13:51:11;14.80;68.30
6538;DHT22;3302;52.508;13.454;2024-03-29T13:53:57;14.80;67.00
6538;DHT22;3302;52.508;13.454;2024-03-29T13:56:44;14.90;67.00
6538;DHT22;3302;52.508;13.454;2024-03-29T13:59:30;14.90;65.70
6538;DHT22;3302;52.508;13.454;2024-03-29T14:02:19;15.00;65.60
6538;DHT22;3302;52.508;13.454;2024-03-29T14:05:05;15.00;65.50
6538;DHT22;3302;52.508;13.454;2024-03-29T14:07:51;15.00;65.00
6538;DHT22;3302;52.508;13.454;2024-03-29T14:10:37;15.10;65.40
6538;DHT22;3302;52.508;13.454;2024-03-29T14:13:23;15.30;64.90
6538;DHT22;3302;52.508;13.454;2024-03-29T14:16:09;15.40;64.50
6538;DHT22;3302;52.508;13.454;2024-03-29T14:18:55;15.40;65.10
6538;DHT22;3302;52.508;13.454;2024-03-29T14:21:41;15.20;65.50
6538;DHT22;3302;52.508;13.454;2024-03-29T14:24:27;15.30;65.70
6538;DHT22;3302;52.508;13.454;2024-03-29T14:27:13;15.40;65.60
6538;DHT22;3302;52.508;13.454;2024-03-29T14:30:00;15.40;66.50
6538;DHT22;3302;52.508;13.454;2024-03-29T14:32:51;15.40;67.10
6538;DHT22;3302;52.508;13.454;2024-03-29T14:35:37;15.50;67.60
6538;DHT22;3302;52.508;13.454;2024-03-29T14:38:23;15.30;68.30
6538;DHT22;3302;52.508;13.454;2024-03-29T14:41:09;15.10;68.10
6538;DHT22;3302;52.508;13.454;2024-03-29T14:43:55;15.40;68.60
6538;DHT22;3302;52.508;13.454;2024-03-29T14:46:42;15.70;67.70
6538;DHT22;3302;52.508;13.454;2024-03-29T14:49:28;15.80;68.10
6538;DHT22;3302;52.508;13.454;2024-03-29T14:52:14;15.70;68.60
6538;DHT22;3302;52.508;13.454;2024-03-29T14:55:00;15.40;68.50
6538;DHT22;3302;52.508;13.454;2024-03-29T14:57:46;15.40;69.00
6538;DHT22;3302;52.508;13.454;2024-03-29T15:00:33;15.40;69.20
6538;DHT22;3302;52.508;13.454;2024-03-29T15:03:19;15.40;69.60
6538;DHT22;3302;52.508;13.454;2024-03-29T15:06:05;15.30;70.00
6538;DHT22;3302;52.508;13.454;2024-03-29T15:08:55;15.40;70.50
6538;DHT22;3302;52.508;13.454;2024-03-29T15:11:43;15.30;71.10
6538;DHT22;3302;52.508;13.454;2024-03-29T15:14:29;15.30;71.40
6538;DHT22;3302;52.508;13.454;2024-03-29T15:17:15;15.20;71.70
6538;DHT22;3302;52.508;13.454;2024-03-29T15:20:02;15.20;71.90
6538;DHT22;3302;52.508;13.454;2024-03-29T15:22:50;15.30;72.20
6538;DHT22;3302;52.508;13.454;2024-03-29T15:25:37;15.20;72.80
6538;DHT22;3302;52.508;13.454;2024-03-29T15:28:25;15.20;73.30
6538;DHT22;3302;52.508;13.454;2024-03-29T15:31:30;15.10;73.80
6538;DHT22;3302;52.508;13.454;2024-03-29T15:34:16;15.40;75.90
6538;DHT22;3302;52.508;13.454;2024-03-29T15:37:02;15.20;75.20
6538;DHT22;3302;52.508;13.454;2024-03-29T15:39:48;15.10;76.30
6538;DHT22;3302;52.508;13.454;2024-03-29T15:42:34;15.10;75.90
6538;DHT22;3302;52.508;13.454;2024-03-29T15:45:21;15.00;76.70
6538;DHT22;3302;52.508;13.454;2024-03-29T15:48:07;15.00;77.70
6538;DHT22;3302;52.508;13.454;2024-03-29T15:50:53;15.00;76.90
6538;DHT22;3302;52.508;13.454;2024-03-29T15:53:40;14.80;77.60
6538;DHT22;3302;52.508;13.454;2024-03-29T15:56:27;14.90;78.10
6538;DHT22;3302;52.508;13.454;2024-03-29T15:59:13;14.80;78.70
6538;DHT22;3302;52.508;13.454;2024-03-29T16:01:59;14.80;79.00
6538;DHT22;3302;52.508;13.454;2024-03-29T16:04:46;14.70;79.60
6538;DHT22;3302;52.508;13.454;2024-03-29T16:07:32;14.70;79.90
6538;DHT22;3302;52.508;13.454;2024-03-29T16:10:18;14.70;80.30
6538;DHT22;3302;52.508;13.454;2024-03-29T16:13:04;14.60;80.50
6538;DHT22;3302;52.508;13.454;2024-03-29T16:15:51;14.60;81.00
6538;DHT22;3302;52.508;13.454;2024-03-29T16:18:37;14.60;81.70
6538;DHT22;3302;52.508;13.454;2024-03-29T16:21:24;14.50;82.00
6538;DHT22;3302;52.508;13.454;2024-03-29T16:24:11;14.50;82.50
6538;DHT22;3302;52.508;13.454;2024-03-29T16:26:57;14.50;82.80
6538;DHT22;3302;52.508;13.454;2024-03-29T16:29:43;14.50;84.00
6538;DHT22;3302;52.508;13.454;2024-03-29T16:32:29;14.50;84.30
6538;DHT22;3302;52.508;13.454;2024-03-29T16:35:17;14.40;83.90
6538;DHT22;3302;52.508;13.454;2024-03-29T16:38:03;14.40;84.60
6538;DHT22;3302;52.508;13.454;2024-03-29T16:40:49;14.40;85.10
6538;DHT22;3302;52.508;13.454;2024-03-29T16:43:35;14.40;85.80
6538;DHT22;3302;52.508;13.454;2024-03-29T16:46:21;14.40;86.30
6538;DHT22;3302;52.508;13.454;2024-03-29T16:49:08;14.30;87.20
6538;DHT22;3302;52.508;13.454;2024-03-29T16:51:54;14.30;87.60
6538;DHT22;3302;52.508;13.454;2024-03-29T16:54:40;14.30;88.20
6538;DHT22;3302;52.508;13.454;2024-03-29T16:57:26;14.20;88.80
6538;DHT22;3302;52.508;13.454;2024-03-29T17:00:12;14.20;89.10
6538;DHT22;3302;52.508;13.454;2024-03-29T17:02:58;14.20;89.50
6538;DHT22;3302;52.508;13.454;2024-03-29T17:05:46;14.20;90.00
6538;DHT22;3302;52.508;13.454;2024-03-29T17:08:32;14.10;90.20
6538;DHT22;3302;52.508;13.454;2024-03-29T17:11:18;14.10;90.50
6538;DHT22;3302;52.508;13.454;2024-03-29T17:14:04;14.10;90.80
6538;DHT22;3302;52.508;13.454;2024-03-29T17:16:50;14.00;91.20
6538;DHT22;3302;52.508;13.454;2024-03-29T17:19:36;14.00;91.40
6538;DHT22;3302;52.508;13.454;2024-03-29T17:22:23;14.00;91.60
6538;DHT22;3302;52.508;13.454;2024-03-29T17:25:09;14.00;91.90
6538;DHT22;3302;52.508;13.454;2024-03-29T17:27:55;13.90;92.20
6538;DHT22;3302;52.508;13.454;2024-03-29T17:30:41;13.90;92.60
6538;DHT22;3302;52.508;13.454;2024-03-29T17:33:27;13.80;92.70
6538;DHT22;3302;52.508;13.454;2024-03-29T17:36:14;13.80;93.00
6538;DHT22;3302;52.508;13.454;2024-03-29T17:39:01;13.80;93.20
6538;DHT22;3302;52.508;13.454;2024-03-29T17:41:47;13.80;93.50
6538;DHT22;3302;52.508;13.454;2024-03-29T17:44:33;13.70;93.60
6538;DHT22;3302;52.508;13.454;2024-03-29T17:47:19;13.70;93.90
6538;DHT22;3302;52.508;13.454;2024-03-29T17:50:05;13.70;94.10
6538;DHT22;3302;52.508;13.454;2024-03-29T17:52:51;13.70;94.20
6538;DHT22;3302;52.508;13.454;2024-03-29T17:55:37;13.70;94.30
6538;DHT22;3302;52.508;13.454;2024-03-29T17:58:23;13.60;94.30
6538;DHT22;3302;52.508;13.454;2024-03-29T18:01:12;13.60;94.60